<?xml version="1.0" encoding="UTF-8" standalone="no" ?>
<gpx xmlns="http://www.topografix.com/GPX/1/1" xmlns:xsi="http://www.w3.org/2001/XMLSchema-instance" xsi:schemaLocation="http://www.topografix.com/GPX/1/1 http://www.topografix.com/GPX/1/1/gpx.xsd" version="1.1" creator="VisuGPX - https://www.visugpx.com">
  <metadata>
    <name>3 oct13 verne fontaine oiseau   5 tours de stade </name>
    <desc><![CDATA[verne fontaine oiseau   5 tours de stade ]]></desc>
  </metadata>
  <trk>
    <name><![CDATA[verne fontaine oiseau + 5 tours de stade 3 oct13]]></name>
    <trkseg>
      <trkpt lat="46.38027" lon="5.85597">
        <ele>431.6</ele>
        <time>2013-10-03T15:36:43Z</time>
      </trkpt>
      <trkpt lat="46.38027" lon="5.85597">
        <ele>505.2</ele>
        <time>2013-10-03T15:36:57Z</time>
      </trkpt>
      <trkpt lat="46.38043" lon="5.85618">
        <ele>501.5</ele>
        <time>2013-10-03T15:37:00Z</time>
      </trkpt>
      <trkpt lat="46.38059" lon="5.8562">
        <ele>497.8</ele>
        <time>2013-10-03T15:37:07Z</time>
      </trkpt>
      <trkpt lat="46.38088" lon="5.85634">
        <ele>500.6</ele>
        <time>2013-10-03T15:37:14Z</time>
      </trkpt>
      <trkpt lat="46.38096" lon="5.85664">
        <ele>483.6</ele>
        <time>2013-10-03T15:37:20Z</time>
      </trkpt>
      <trkpt lat="46.38083" lon="5.8569">
        <ele>485.6</ele>
        <time>2013-10-03T15:37:25Z</time>
      </trkpt>
      <trkpt lat="46.38085" lon="5.85727">
        <ele>484.7</ele>
        <time>2013-10-03T15:37:33Z</time>
      </trkpt>
      <trkpt lat="46.3809" lon="5.85752">
        <ele>482.8</ele>
        <time>2013-10-03T15:37:38Z</time>
      </trkpt>
      <trkpt lat="46.38094" lon="5.8577">
        <ele>483.4</ele>
        <time>2013-10-03T15:37:42Z</time>
      </trkpt>
      <trkpt lat="46.381" lon="5.85802">
        <ele>482.9</ele>
        <time>2013-10-03T15:37:49Z</time>
      </trkpt>
      <trkpt lat="46.38106" lon="5.85831">
        <ele>483</ele>
        <time>2013-10-03T15:37:56Z</time>
      </trkpt>
      <trkpt lat="46.38115" lon="5.85867">
        <ele>482.6</ele>
        <time>2013-10-03T15:38:04Z</time>
      </trkpt>
      <trkpt lat="46.38122" lon="5.85899">
        <ele>482.2</ele>
        <time>2013-10-03T15:38:12Z</time>
      </trkpt>
      <trkpt lat="46.38132" lon="5.85923">
        <ele>483.8</ele>
        <time>2013-10-03T15:38:18Z</time>
      </trkpt>
      <trkpt lat="46.38139" lon="5.85952">
        <ele>483</ele>
        <time>2013-10-03T15:38:25Z</time>
      </trkpt>
      <trkpt lat="46.38145" lon="5.85991">
        <ele>484.6</ele>
        <time>2013-10-03T15:38:33Z</time>
      </trkpt>
      <trkpt lat="46.38156" lon="5.86015">
        <ele>486.2</ele>
        <time>2013-10-03T15:38:39Z</time>
      </trkpt>
      <trkpt lat="46.38173" lon="5.8605">
        <ele>486.2</ele>
        <time>2013-10-03T15:38:48Z</time>
      </trkpt>
      <trkpt lat="46.38184" lon="5.86072">
        <ele>485.9</ele>
        <time>2013-10-03T15:38:54Z</time>
      </trkpt>
      <trkpt lat="46.38198" lon="5.861">
        <ele>487.6</ele>
        <time>2013-10-03T15:39:01Z</time>
      </trkpt>
      <trkpt lat="46.38211" lon="5.86107">
        <ele>489.2</ele>
        <time>2013-10-03T15:39:07Z</time>
      </trkpt>
      <trkpt lat="46.3823" lon="5.86118">
        <ele>490.4</ele>
        <time>2013-10-03T15:39:14Z</time>
      </trkpt>
      <trkpt lat="46.38247" lon="5.86134">
        <ele>489.5</ele>
        <time>2013-10-03T15:39:19Z</time>
      </trkpt>
      <trkpt lat="46.3827" lon="5.86148">
        <ele>489.8</ele>
        <time>2013-10-03T15:39:26Z</time>
      </trkpt>
      <trkpt lat="46.38283" lon="5.86156">
        <ele>491.5</ele>
        <time>2013-10-03T15:39:32Z</time>
      </trkpt>
      <trkpt lat="46.38306" lon="5.86174">
        <ele>493.5</ele>
        <time>2013-10-03T15:39:41Z</time>
      </trkpt>
      <trkpt lat="46.38324" lon="5.8618">
        <ele>495.6</ele>
        <time>2013-10-03T15:39:48Z</time>
      </trkpt>
      <trkpt lat="46.38343" lon="5.8619">
        <ele>497.9</ele>
        <time>2013-10-03T15:39:56Z</time>
      </trkpt>
      <trkpt lat="46.38363" lon="5.86212">
        <ele>498.3</ele>
        <time>2013-10-03T15:40:02Z</time>
      </trkpt>
      <trkpt lat="46.38371" lon="5.86222">
        <ele>498.8</ele>
        <time>2013-10-03T15:40:05Z</time>
      </trkpt>
      <trkpt lat="46.38395" lon="5.86248">
        <ele>499.8</ele>
        <time>2013-10-03T15:40:12Z</time>
      </trkpt>
      <trkpt lat="46.38407" lon="5.86275">
        <ele>500.5</ele>
        <time>2013-10-03T15:40:17Z</time>
      </trkpt>
      <trkpt lat="46.38406" lon="5.86311">
        <ele>502.5</ele>
        <time>2013-10-03T15:40:24Z</time>
      </trkpt>
      <trkpt lat="46.38415" lon="5.8633">
        <ele>504</ele>
        <time>2013-10-03T15:40:32Z</time>
      </trkpt>
      <trkpt lat="46.38444" lon="5.86353">
        <ele>506.7</ele>
        <time>2013-10-03T15:40:43Z</time>
      </trkpt>
      <trkpt lat="46.38462" lon="5.8637">
        <ele>503.8</ele>
        <time>2013-10-03T15:40:49Z</time>
      </trkpt>
      <trkpt lat="46.38483" lon="5.8639">
        <ele>498.2</ele>
        <time>2013-10-03T15:40:56Z</time>
      </trkpt>
      <trkpt lat="46.38499" lon="5.86402">
        <ele>496.9</ele>
        <time>2013-10-03T15:41:01Z</time>
      </trkpt>
      <trkpt lat="46.38523" lon="5.8642">
        <ele>495.2</ele>
        <time>2013-10-03T15:41:08Z</time>
      </trkpt>
      <trkpt lat="46.3854" lon="5.86434">
        <ele>493.5</ele>
        <time>2013-10-03T15:41:13Z</time>
      </trkpt>
      <trkpt lat="46.38559" lon="5.8645">
        <ele>493.6</ele>
        <time>2013-10-03T15:41:19Z</time>
      </trkpt>
      <trkpt lat="46.3858" lon="5.86465">
        <ele>492.8</ele>
        <time>2013-10-03T15:41:26Z</time>
      </trkpt>
      <trkpt lat="46.38592" lon="5.86474">
        <ele>492.5</ele>
        <time>2013-10-03T15:41:30Z</time>
      </trkpt>
      <trkpt lat="46.38611" lon="5.86482">
        <ele>492.3</ele>
        <time>2013-10-03T15:41:38Z</time>
      </trkpt>
      <trkpt lat="46.38627" lon="5.86491">
        <ele>492.8</ele>
        <time>2013-10-03T15:41:43Z</time>
      </trkpt>
      <trkpt lat="46.38648" lon="5.86511">
        <ele>493.2</ele>
        <time>2013-10-03T15:41:50Z</time>
      </trkpt>
      <trkpt lat="46.38662" lon="5.86518">
        <ele>494.6</ele>
        <time>2013-10-03T15:41:55Z</time>
      </trkpt>
      <trkpt lat="46.38683" lon="5.86553">
        <ele>498</ele>
        <time>2013-10-03T15:42:03Z</time>
      </trkpt>
      <trkpt lat="46.38688" lon="5.86581">
        <ele>497.7</ele>
        <time>2013-10-03T15:42:08Z</time>
      </trkpt>
      <trkpt lat="46.38694" lon="5.86618">
        <ele>498.8</ele>
        <time>2013-10-03T15:42:14Z</time>
      </trkpt>
      <trkpt lat="46.38701" lon="5.86646">
        <ele>500.4</ele>
        <time>2013-10-03T15:42:19Z</time>
      </trkpt>
      <trkpt lat="46.38705" lon="5.86682">
        <ele>502.8</ele>
        <time>2013-10-03T15:42:26Z</time>
      </trkpt>
      <trkpt lat="46.38676" lon="5.86703">
        <ele>496.5</ele>
        <time>2013-10-03T15:42:32Z</time>
      </trkpt>
      <trkpt lat="46.38662" lon="5.86714">
        <ele>494.3</ele>
        <time>2013-10-03T15:42:35Z</time>
      </trkpt>
      <trkpt lat="46.38642" lon="5.86738">
        <ele>492.8</ele>
        <time>2013-10-03T15:42:42Z</time>
      </trkpt>
      <trkpt lat="46.38628" lon="5.86764">
        <ele>492.9</ele>
        <time>2013-10-03T15:42:49Z</time>
      </trkpt>
      <trkpt lat="46.38617" lon="5.86796">
        <ele>491.7</ele>
        <time>2013-10-03T15:42:56Z</time>
      </trkpt>
      <trkpt lat="46.38596" lon="5.86814">
        <ele>491.5</ele>
        <time>2013-10-03T15:43:03Z</time>
      </trkpt>
      <trkpt lat="46.3858" lon="5.86836">
        <ele>490.3</ele>
        <time>2013-10-03T15:43:09Z</time>
      </trkpt>
      <trkpt lat="46.38554" lon="5.86846">
        <ele>489.9</ele>
        <time>2013-10-03T15:43:17Z</time>
      </trkpt>
      <trkpt lat="46.38532" lon="5.86865">
        <ele>489</ele>
        <time>2013-10-03T15:43:25Z</time>
      </trkpt>
      <trkpt lat="46.38514" lon="5.86884">
        <ele>488.9</ele>
        <time>2013-10-03T15:43:32Z</time>
      </trkpt>
      <trkpt lat="46.38501" lon="5.86898">
        <ele>488.9</ele>
        <time>2013-10-03T15:43:37Z</time>
      </trkpt>
      <trkpt lat="46.38484" lon="5.86914">
        <ele>488.5</ele>
        <time>2013-10-03T15:43:43Z</time>
      </trkpt>
      <trkpt lat="46.38469" lon="5.86941">
        <ele>488.9</ele>
        <time>2013-10-03T15:43:50Z</time>
      </trkpt>
      <trkpt lat="46.38454" lon="5.86963">
        <ele>488.3</ele>
        <time>2013-10-03T15:43:56Z</time>
      </trkpt>
      <trkpt lat="46.38438" lon="5.86985">
        <ele>489.1</ele>
        <time>2013-10-03T15:44:02Z</time>
      </trkpt>
      <trkpt lat="46.38417" lon="5.87005">
        <ele>489</ele>
        <time>2013-10-03T15:44:09Z</time>
      </trkpt>
      <trkpt lat="46.38397" lon="5.87019">
        <ele>489.5</ele>
        <time>2013-10-03T15:44:15Z</time>
      </trkpt>
      <trkpt lat="46.38374" lon="5.87031">
        <ele>492.3</ele>
        <time>2013-10-03T15:44:22Z</time>
      </trkpt>
      <trkpt lat="46.38349" lon="5.87033">
        <ele>494.1</ele>
        <time>2013-10-03T15:44:29Z</time>
      </trkpt>
      <trkpt lat="46.3833" lon="5.87042">
        <ele>494.6</ele>
        <time>2013-10-03T15:44:35Z</time>
      </trkpt>
      <trkpt lat="46.38315" lon="5.87055">
        <ele>493.8</ele>
        <time>2013-10-03T15:44:40Z</time>
      </trkpt>
      <trkpt lat="46.38301" lon="5.87081">
        <ele>493.3</ele>
        <time>2013-10-03T15:44:48Z</time>
      </trkpt>
      <trkpt lat="46.38275" lon="5.87084">
        <ele>492.7</ele>
        <time>2013-10-03T15:44:55Z</time>
      </trkpt>
      <trkpt lat="46.38256" lon="5.87097">
        <ele>492.7</ele>
        <time>2013-10-03T15:45:02Z</time>
      </trkpt>
      <trkpt lat="46.38239" lon="5.87112">
        <ele>492.8</ele>
        <time>2013-10-03T15:45:08Z</time>
      </trkpt>
      <trkpt lat="46.38213" lon="5.87114">
        <ele>493.4</ele>
        <time>2013-10-03T15:45:15Z</time>
      </trkpt>
      <trkpt lat="46.38205" lon="5.87129">
        <ele>492.6</ele>
        <time>2013-10-03T15:45:20Z</time>
      </trkpt>
      <trkpt lat="46.382" lon="5.87148">
        <ele>492.9</ele>
        <time>2013-10-03T15:45:25Z</time>
      </trkpt>
      <trkpt lat="46.38179" lon="5.87182">
        <ele>491.8</ele>
        <time>2013-10-03T15:45:33Z</time>
      </trkpt>
      <trkpt lat="46.38168" lon="5.87203">
        <ele>493.3</ele>
        <time>2013-10-03T15:45:39Z</time>
      </trkpt>
      <trkpt lat="46.38158" lon="5.87227">
        <ele>494.5</ele>
        <time>2013-10-03T15:45:45Z</time>
      </trkpt>
      <trkpt lat="46.38145" lon="5.8725">
        <ele>493.3</ele>
        <time>2013-10-03T15:45:50Z</time>
      </trkpt>
      <trkpt lat="46.38138" lon="5.87277">
        <ele>492.7</ele>
        <time>2013-10-03T15:45:55Z</time>
      </trkpt>
      <trkpt lat="46.3812" lon="5.873">
        <ele>492</ele>
        <time>2013-10-03T15:46:02Z</time>
      </trkpt>
      <trkpt lat="46.38102" lon="5.87319">
        <ele>491.2</ele>
        <time>2013-10-03T15:46:08Z</time>
      </trkpt>
      <trkpt lat="46.38092" lon="5.87337">
        <ele>491.2</ele>
        <time>2013-10-03T15:46:13Z</time>
      </trkpt>
      <trkpt lat="46.3808" lon="5.87364">
        <ele>490.4</ele>
        <time>2013-10-03T15:46:20Z</time>
      </trkpt>
      <trkpt lat="46.38071" lon="5.87381">
        <ele>490.8</ele>
        <time>2013-10-03T15:46:25Z</time>
      </trkpt>
      <trkpt lat="46.38057" lon="5.87415">
        <ele>490.7</ele>
        <time>2013-10-03T15:46:33Z</time>
      </trkpt>
      <trkpt lat="46.38041" lon="5.87439">
        <ele>489.7</ele>
        <time>2013-10-03T15:46:40Z</time>
      </trkpt>
      <trkpt lat="46.38025" lon="5.87463">
        <ele>490.3</ele>
        <time>2013-10-03T15:46:47Z</time>
      </trkpt>
      <trkpt lat="46.3801" lon="5.87478">
        <ele>491.9</ele>
        <time>2013-10-03T15:46:53Z</time>
      </trkpt>
      <trkpt lat="46.3798" lon="5.87482">
        <ele>492.2</ele>
        <time>2013-10-03T15:47:01Z</time>
      </trkpt>
      <trkpt lat="46.37955" lon="5.87478">
        <ele>493.1</ele>
        <time>2013-10-03T15:47:08Z</time>
      </trkpt>
      <trkpt lat="46.37939" lon="5.8747">
        <ele>493.4</ele>
        <time>2013-10-03T15:47:13Z</time>
      </trkpt>
      <trkpt lat="46.37916" lon="5.87455">
        <ele>494.8</ele>
        <time>2013-10-03T15:47:20Z</time>
      </trkpt>
      <trkpt lat="46.37903" lon="5.87447">
        <ele>494.4</ele>
        <time>2013-10-03T15:47:24Z</time>
      </trkpt>
      <trkpt lat="46.3788" lon="5.87443">
        <ele>494.1</ele>
        <time>2013-10-03T15:47:31Z</time>
      </trkpt>
      <trkpt lat="46.37861" lon="5.87443">
        <ele>493.9</ele>
        <time>2013-10-03T15:47:37Z</time>
      </trkpt>
      <trkpt lat="46.37842" lon="5.8743">
        <ele>493.8</ele>
        <time>2013-10-03T15:47:43Z</time>
      </trkpt>
      <trkpt lat="46.37833" lon="5.87424">
        <ele>495.2</ele>
        <time>2013-10-03T15:47:46Z</time>
      </trkpt>
      <trkpt lat="46.3781" lon="5.87411">
        <ele>494.8</ele>
        <time>2013-10-03T15:47:53Z</time>
      </trkpt>
      <trkpt lat="46.37791" lon="5.87398">
        <ele>494.1</ele>
        <time>2013-10-03T15:47:59Z</time>
      </trkpt>
      <trkpt lat="46.37776" lon="5.8738">
        <ele>493.8</ele>
        <time>2013-10-03T15:48:05Z</time>
      </trkpt>
      <trkpt lat="46.37758" lon="5.87353">
        <ele>493.1</ele>
        <time>2013-10-03T15:48:12Z</time>
      </trkpt>
      <trkpt lat="46.37746" lon="5.8733">
        <ele>494.2</ele>
        <time>2013-10-03T15:48:18Z</time>
      </trkpt>
      <trkpt lat="46.37732" lon="5.87294">
        <ele>493.7</ele>
        <time>2013-10-03T15:48:26Z</time>
      </trkpt>
      <trkpt lat="46.3772" lon="5.8727">
        <ele>493.4</ele>
        <time>2013-10-03T15:48:32Z</time>
      </trkpt>
      <trkpt lat="46.3771" lon="5.87249">
        <ele>492.3</ele>
        <time>2013-10-03T15:48:37Z</time>
      </trkpt>
      <trkpt lat="46.37697" lon="5.87211">
        <ele>491.9</ele>
        <time>2013-10-03T15:48:45Z</time>
      </trkpt>
      <trkpt lat="46.37694" lon="5.87184">
        <ele>490</ele>
        <time>2013-10-03T15:48:50Z</time>
      </trkpt>
      <trkpt lat="46.37682" lon="5.87153">
        <ele>487.9</ele>
        <time>2013-10-03T15:48:57Z</time>
      </trkpt>
      <trkpt lat="46.37663" lon="5.87132">
        <ele>487.2</ele>
        <time>2013-10-03T15:49:04Z</time>
      </trkpt>
      <trkpt lat="46.37647" lon="5.87111">
        <ele>485.8</ele>
        <time>2013-10-03T15:49:10Z</time>
      </trkpt>
      <trkpt lat="46.37625" lon="5.87088">
        <ele>484.6</ele>
        <time>2013-10-03T15:49:18Z</time>
      </trkpt>
      <trkpt lat="46.37609" lon="5.87084">
        <ele>485.1</ele>
        <time>2013-10-03T15:49:23Z</time>
      </trkpt>
      <trkpt lat="46.37589" lon="5.8709">
        <ele>485.4</ele>
        <time>2013-10-03T15:49:30Z</time>
      </trkpt>
      <trkpt lat="46.37566" lon="5.87093">
        <ele>484.1</ele>
        <time>2013-10-03T15:49:37Z</time>
      </trkpt>
      <trkpt lat="46.37547" lon="5.87115">
        <ele>483.8</ele>
        <time>2013-10-03T15:49:44Z</time>
      </trkpt>
      <trkpt lat="46.37525" lon="5.87135">
        <ele>481.5</ele>
        <time>2013-10-03T15:49:52Z</time>
      </trkpt>
      <trkpt lat="46.37498" lon="5.87158">
        <ele>479.9</ele>
        <time>2013-10-03T15:50:00Z</time>
      </trkpt>
      <trkpt lat="46.37471" lon="5.87168">
        <ele>476.9</ele>
        <time>2013-10-03T15:50:07Z</time>
      </trkpt>
      <trkpt lat="46.37449" lon="5.87167">
        <ele>475</ele>
        <time>2013-10-03T15:50:13Z</time>
      </trkpt>
      <trkpt lat="46.37427" lon="5.87156">
        <ele>474.6</ele>
        <time>2013-10-03T15:50:20Z</time>
      </trkpt>
      <trkpt lat="46.37408" lon="5.87139">
        <ele>476.4</ele>
        <time>2013-10-03T15:50:28Z</time>
      </trkpt>
      <trkpt lat="46.37393" lon="5.87119">
        <ele>478</ele>
        <time>2013-10-03T15:50:35Z</time>
      </trkpt>
      <trkpt lat="46.37379" lon="5.8711">
        <ele>480</ele>
        <time>2013-10-03T15:50:40Z</time>
      </trkpt>
      <trkpt lat="46.37349" lon="5.87092">
        <ele>479.6</ele>
        <time>2013-10-03T15:50:47Z</time>
      </trkpt>
      <trkpt lat="46.37328" lon="5.87086">
        <ele>478.3</ele>
        <time>2013-10-03T15:50:53Z</time>
      </trkpt>
      <trkpt lat="46.37304" lon="5.87073">
        <ele>477.2</ele>
        <time>2013-10-03T15:51:01Z</time>
      </trkpt>
      <trkpt lat="46.37288" lon="5.87058">
        <ele>475.6</ele>
        <time>2013-10-03T15:51:08Z</time>
      </trkpt>
      <trkpt lat="46.37272" lon="5.87043">
        <ele>475.2</ele>
        <time>2013-10-03T15:51:14Z</time>
      </trkpt>
      <trkpt lat="46.37247" lon="5.87025">
        <ele>473.8</ele>
        <time>2013-10-03T15:51:23Z</time>
      </trkpt>
      <trkpt lat="46.37229" lon="5.87012">
        <ele>473.4</ele>
        <time>2013-10-03T15:51:30Z</time>
      </trkpt>
      <trkpt lat="46.37215" lon="5.87006">
        <ele>472.7</ele>
        <time>2013-10-03T15:51:35Z</time>
      </trkpt>
      <trkpt lat="46.3719" lon="5.86999">
        <ele>472.3</ele>
        <time>2013-10-03T15:51:42Z</time>
      </trkpt>
      <trkpt lat="46.37167" lon="5.86989">
        <ele>473.1</ele>
        <time>2013-10-03T15:51:49Z</time>
      </trkpt>
      <trkpt lat="46.37145" lon="5.8698">
        <ele>472.7</ele>
        <time>2013-10-03T15:51:56Z</time>
      </trkpt>
      <trkpt lat="46.37127" lon="5.86974">
        <ele>472.6</ele>
        <time>2013-10-03T15:52:02Z</time>
      </trkpt>
      <trkpt lat="46.37105" lon="5.8697">
        <ele>472.4</ele>
        <time>2013-10-03T15:52:09Z</time>
      </trkpt>
      <trkpt lat="46.37089" lon="5.86964">
        <ele>473</ele>
        <time>2013-10-03T15:52:15Z</time>
      </trkpt>
      <trkpt lat="46.37073" lon="5.86951">
        <ele>473.7</ele>
        <time>2013-10-03T15:52:22Z</time>
      </trkpt>
      <trkpt lat="46.37053" lon="5.86929">
        <ele>474.7</ele>
        <time>2013-10-03T15:52:30Z</time>
      </trkpt>
      <trkpt lat="46.37041" lon="5.86908">
        <ele>475.2</ele>
        <time>2013-10-03T15:52:37Z</time>
      </trkpt>
      <trkpt lat="46.37022" lon="5.86883">
        <ele>475.3</ele>
        <time>2013-10-03T15:52:46Z</time>
      </trkpt>
      <trkpt lat="46.37001" lon="5.86871">
        <ele>474.7</ele>
        <time>2013-10-03T15:52:53Z</time>
      </trkpt>
      <trkpt lat="46.36978" lon="5.86867">
        <ele>474.5</ele>
        <time>2013-10-03T15:53:00Z</time>
      </trkpt>
      <trkpt lat="46.36961" lon="5.8688">
        <ele>475.2</ele>
        <time>2013-10-03T15:53:06Z</time>
      </trkpt>
      <trkpt lat="46.3696" lon="5.86912">
        <ele>476.7</ele>
        <time>2013-10-03T15:53:13Z</time>
      </trkpt>
      <trkpt lat="46.36971" lon="5.86938">
        <ele>478</ele>
        <time>2013-10-03T15:53:20Z</time>
      </trkpt>
      <trkpt lat="46.36966" lon="5.86972">
        <ele>480.3</ele>
        <time>2013-10-03T15:53:28Z</time>
      </trkpt>
      <trkpt lat="46.36967" lon="5.86999">
        <ele>481.4</ele>
        <time>2013-10-03T15:53:35Z</time>
      </trkpt>
      <trkpt lat="46.36973" lon="5.87027">
        <ele>482.9</ele>
        <time>2013-10-03T15:53:42Z</time>
      </trkpt>
      <trkpt lat="46.36983" lon="5.87052">
        <ele>481.9</ele>
        <time>2013-10-03T15:53:48Z</time>
      </trkpt>
      <trkpt lat="46.36988" lon="5.87073">
        <ele>484.4</ele>
        <time>2013-10-03T15:53:53Z</time>
      </trkpt>
      <trkpt lat="46.36995" lon="5.87103">
        <ele>484.5</ele>
        <time>2013-10-03T15:54:00Z</time>
      </trkpt>
      <trkpt lat="46.37006" lon="5.87131">
        <ele>484.1</ele>
        <time>2013-10-03T15:54:07Z</time>
      </trkpt>
      <trkpt lat="46.37017" lon="5.87163">
        <ele>485.6</ele>
        <time>2013-10-03T15:54:14Z</time>
      </trkpt>
      <trkpt lat="46.37028" lon="5.87171">
        <ele>483.1</ele>
        <time>2013-10-03T15:54:19Z</time>
      </trkpt>
      <trkpt lat="46.3705" lon="5.87183">
        <ele>481.4</ele>
        <time>2013-10-03T15:54:28Z</time>
      </trkpt>
      <trkpt lat="46.37073" lon="5.87198">
        <ele>480.9</ele>
        <time>2013-10-03T15:54:35Z</time>
      </trkpt>
      <trkpt lat="46.37092" lon="5.8721">
        <ele>481.6</ele>
        <time>2013-10-03T15:54:42Z</time>
      </trkpt>
      <trkpt lat="46.37109" lon="5.87222">
        <ele>483</ele>
        <time>2013-10-03T15:54:48Z</time>
      </trkpt>
      <trkpt lat="46.37133" lon="5.87236">
        <ele>483.7</ele>
        <time>2013-10-03T15:54:57Z</time>
      </trkpt>
      <trkpt lat="46.37148" lon="5.87245">
        <ele>484</ele>
        <time>2013-10-03T15:55:02Z</time>
      </trkpt>
      <trkpt lat="46.3716" lon="5.87253">
        <ele>484.1</ele>
        <time>2013-10-03T15:55:07Z</time>
      </trkpt>
      <trkpt lat="46.37182" lon="5.87261">
        <ele>484.5</ele>
        <time>2013-10-03T15:55:14Z</time>
      </trkpt>
      <trkpt lat="46.37195" lon="5.87261">
        <ele>482.8</ele>
        <time>2013-10-03T15:55:19Z</time>
      </trkpt>
      <trkpt lat="46.37216" lon="5.87259">
        <ele>482.2</ele>
        <time>2013-10-03T15:55:27Z</time>
      </trkpt>
      <trkpt lat="46.37241" lon="5.87256">
        <ele>482.3</ele>
        <time>2013-10-03T15:55:35Z</time>
      </trkpt>
      <trkpt lat="46.37261" lon="5.87256">
        <ele>481.7</ele>
        <time>2013-10-03T15:55:41Z</time>
      </trkpt>
      <trkpt lat="46.37278" lon="5.87256">
        <ele>480.7</ele>
        <time>2013-10-03T15:55:47Z</time>
      </trkpt>
      <trkpt lat="46.37301" lon="5.87265">
        <ele>480.3</ele>
        <time>2013-10-03T15:55:55Z</time>
      </trkpt>
      <trkpt lat="46.37319" lon="5.87279">
        <ele>479.8</ele>
        <time>2013-10-03T15:56:01Z</time>
      </trkpt>
      <trkpt lat="46.37341" lon="5.87301">
        <ele>480</ele>
        <time>2013-10-03T15:56:09Z</time>
      </trkpt>
      <trkpt lat="46.37358" lon="5.87315">
        <ele>479.8</ele>
        <time>2013-10-03T15:56:15Z</time>
      </trkpt>
      <trkpt lat="46.37374" lon="5.8733">
        <ele>478.4</ele>
        <time>2013-10-03T15:56:22Z</time>
      </trkpt>
      <trkpt lat="46.37388" lon="5.8734">
        <ele>477.3</ele>
        <time>2013-10-03T15:56:27Z</time>
      </trkpt>
      <trkpt lat="46.37405" lon="5.8735">
        <ele>478.8</ele>
        <time>2013-10-03T15:56:33Z</time>
      </trkpt>
      <trkpt lat="46.37421" lon="5.8736">
        <ele>478.9</ele>
        <time>2013-10-03T15:56:38Z</time>
      </trkpt>
      <trkpt lat="46.37438" lon="5.87369">
        <ele>479.4</ele>
        <time>2013-10-03T15:56:44Z</time>
      </trkpt>
      <trkpt lat="46.37452" lon="5.87378">
        <ele>480.4</ele>
        <time>2013-10-03T15:56:49Z</time>
      </trkpt>
      <trkpt lat="46.3747" lon="5.87388">
        <ele>480.2</ele>
        <time>2013-10-03T15:56:55Z</time>
      </trkpt>
      <trkpt lat="46.37493" lon="5.874">
        <ele>479.1</ele>
        <time>2013-10-03T15:57:03Z</time>
      </trkpt>
      <trkpt lat="46.37511" lon="5.87405">
        <ele>478.6</ele>
        <time>2013-10-03T15:57:09Z</time>
      </trkpt>
      <trkpt lat="46.3753" lon="5.87408">
        <ele>478.3</ele>
        <time>2013-10-03T15:57:15Z</time>
      </trkpt>
      <trkpt lat="46.37551" lon="5.8741">
        <ele>478.4</ele>
        <time>2013-10-03T15:57:21Z</time>
      </trkpt>
      <trkpt lat="46.37569" lon="5.87421">
        <ele>477.7</ele>
        <time>2013-10-03T15:57:27Z</time>
      </trkpt>
      <trkpt lat="46.37589" lon="5.87431">
        <ele>478.2</ele>
        <time>2013-10-03T15:57:34Z</time>
      </trkpt>
      <trkpt lat="46.37607" lon="5.87433">
        <ele>479.1</ele>
        <time>2013-10-03T15:57:40Z</time>
      </trkpt>
      <trkpt lat="46.37622" lon="5.87417">
        <ele>479.7</ele>
        <time>2013-10-03T15:57:46Z</time>
      </trkpt>
      <trkpt lat="46.37627" lon="5.87377">
        <ele>477.7</ele>
        <time>2013-10-03T15:57:57Z</time>
      </trkpt>
      <trkpt lat="46.37638" lon="5.87349">
        <ele>477.9</ele>
        <time>2013-10-03T15:58:05Z</time>
      </trkpt>
      <trkpt lat="46.37651" lon="5.87328">
        <ele>479.4</ele>
        <time>2013-10-03T15:58:12Z</time>
      </trkpt>
      <trkpt lat="46.3766" lon="5.8734">
        <ele>478.8</ele>
        <time>2013-10-03T15:58:20Z</time>
      </trkpt>
      <trkpt lat="46.3765" lon="5.87362">
        <ele>479.5</ele>
        <time>2013-10-03T15:58:26Z</time>
      </trkpt>
      <trkpt lat="46.37641" lon="5.87386">
        <ele>480.7</ele>
        <time>2013-10-03T15:58:32Z</time>
      </trkpt>
      <trkpt lat="46.37638" lon="5.87428">
        <ele>482.3</ele>
        <time>2013-10-03T15:58:41Z</time>
      </trkpt>
      <trkpt lat="46.37642" lon="5.87456">
        <ele>483.2</ele>
        <time>2013-10-03T15:58:48Z</time>
      </trkpt>
      <trkpt lat="46.37645" lon="5.87494">
        <ele>483.4</ele>
        <time>2013-10-03T15:58:57Z</time>
      </trkpt>
      <trkpt lat="46.37643" lon="5.87531">
        <ele>483</ele>
        <time>2013-10-03T15:59:06Z</time>
      </trkpt>
      <trkpt lat="46.3763" lon="5.87548">
        <ele>483.9</ele>
        <time>2013-10-03T15:59:12Z</time>
      </trkpt>
      <trkpt lat="46.37623" lon="5.87585">
        <ele>484.6</ele>
        <time>2013-10-03T15:59:20Z</time>
      </trkpt>
      <trkpt lat="46.37618" lon="5.87608">
        <ele>486.3</ele>
        <time>2013-10-03T15:59:26Z</time>
      </trkpt>
      <trkpt lat="46.37614" lon="5.87639">
        <ele>486.6</ele>
        <time>2013-10-03T15:59:32Z</time>
      </trkpt>
      <trkpt lat="46.37612" lon="5.87682">
        <ele>489.5</ele>
        <time>2013-10-03T15:59:41Z</time>
      </trkpt>
      <trkpt lat="46.37619" lon="5.87719">
        <ele>489.5</ele>
        <time>2013-10-03T15:59:48Z</time>
      </trkpt>
      <trkpt lat="46.37626" lon="5.87752">
        <ele>489.5</ele>
        <time>2013-10-03T15:59:54Z</time>
      </trkpt>
      <trkpt lat="46.37632" lon="5.87776">
        <ele>491.6</ele>
        <time>2013-10-03T16:00:00Z</time>
      </trkpt>
      <trkpt lat="46.37631" lon="5.87801">
        <ele>493.5</ele>
        <time>2013-10-03T16:00:08Z</time>
      </trkpt>
      <trkpt lat="46.37627" lon="5.87838">
        <ele>494.8</ele>
        <time>2013-10-03T16:00:16Z</time>
      </trkpt>
      <trkpt lat="46.37621" lon="5.87868">
        <ele>493.2</ele>
        <time>2013-10-03T16:00:22Z</time>
      </trkpt>
      <trkpt lat="46.37616" lon="5.879">
        <ele>492.7</ele>
        <time>2013-10-03T16:00:29Z</time>
      </trkpt>
      <trkpt lat="46.37624" lon="5.87928">
        <ele>492.2</ele>
        <time>2013-10-03T16:00:36Z</time>
      </trkpt>
      <trkpt lat="46.37636" lon="5.87959">
        <ele>492.3</ele>
        <time>2013-10-03T16:00:43Z</time>
      </trkpt>
      <trkpt lat="46.3764" lon="5.87987">
        <ele>492.6</ele>
        <time>2013-10-03T16:00:50Z</time>
      </trkpt>
      <trkpt lat="46.37644" lon="5.8801">
        <ele>493.1</ele>
        <time>2013-10-03T16:00:55Z</time>
      </trkpt>
      <trkpt lat="46.3765" lon="5.88037">
        <ele>492.5</ele>
        <time>2013-10-03T16:01:02Z</time>
      </trkpt>
      <trkpt lat="46.37659" lon="5.88057">
        <ele>493.2</ele>
        <time>2013-10-03T16:01:08Z</time>
      </trkpt>
      <trkpt lat="46.37666" lon="5.88079">
        <ele>493.3</ele>
        <time>2013-10-03T16:01:13Z</time>
      </trkpt>
      <trkpt lat="46.37677" lon="5.88102">
        <ele>495</ele>
        <time>2013-10-03T16:01:20Z</time>
      </trkpt>
      <trkpt lat="46.37693" lon="5.88127">
        <ele>497.5</ele>
        <time>2013-10-03T16:01:28Z</time>
      </trkpt>
      <trkpt lat="46.37709" lon="5.8814">
        <ele>500.6</ele>
        <time>2013-10-03T16:01:36Z</time>
      </trkpt>
      <trkpt lat="46.37719" lon="5.88168">
        <ele>500.6</ele>
        <time>2013-10-03T16:01:46Z</time>
      </trkpt>
      <trkpt lat="46.37728" lon="5.88198">
        <ele>502.2</ele>
        <time>2013-10-03T16:01:57Z</time>
      </trkpt>
      <trkpt lat="46.37752" lon="5.88224">
        <ele>504</ele>
        <time>2013-10-03T16:02:09Z</time>
      </trkpt>
      <trkpt lat="46.37782" lon="5.88243">
        <ele>504.9</ele>
        <time>2013-10-03T16:02:21Z</time>
      </trkpt>
      <trkpt lat="46.37794" lon="5.88256">
        <ele>506.4</ele>
        <time>2013-10-03T16:02:27Z</time>
      </trkpt>
      <trkpt lat="46.37813" lon="5.88286">
        <ele>507.9</ele>
        <time>2013-10-03T16:02:39Z</time>
      </trkpt>
      <trkpt lat="46.37834" lon="5.88313">
        <ele>508</ele>
        <time>2013-10-03T16:02:52Z</time>
      </trkpt>
      <trkpt lat="46.37848" lon="5.88319">
        <ele>509.1</ele>
        <time>2013-10-03T16:02:59Z</time>
      </trkpt>
      <trkpt lat="46.37863" lon="5.88319">
        <ele>510.6</ele>
        <time>2013-10-03T16:03:04Z</time>
      </trkpt>
      <trkpt lat="46.3788" lon="5.88321">
        <ele>510.8</ele>
        <time>2013-10-03T16:03:10Z</time>
      </trkpt>
      <trkpt lat="46.37903" lon="5.8832">
        <ele>510.2</ele>
        <time>2013-10-03T16:03:20Z</time>
      </trkpt>
      <trkpt lat="46.3791" lon="5.88316">
        <ele>510.8</ele>
        <time>2013-10-03T16:03:23Z</time>
      </trkpt>
      <trkpt lat="46.37894" lon="5.88312">
        <ele>512.4</ele>
        <time>2013-10-03T16:03:35Z</time>
      </trkpt>
      <trkpt lat="46.37879" lon="5.88308">
        <ele>513.5</ele>
        <time>2013-10-03T16:03:42Z</time>
      </trkpt>
      <trkpt lat="46.3786" lon="5.88303">
        <ele>513.8</ele>
        <time>2013-10-03T16:03:49Z</time>
      </trkpt>
      <trkpt lat="46.37849" lon="5.88286">
        <ele>513.8</ele>
        <time>2013-10-03T16:03:56Z</time>
      </trkpt>
      <trkpt lat="46.37839" lon="5.88261">
        <ele>516</ele>
        <time>2013-10-03T16:04:04Z</time>
      </trkpt>
      <trkpt lat="46.37823" lon="5.88243">
        <ele>518</ele>
        <time>2013-10-03T16:04:12Z</time>
      </trkpt>
      <trkpt lat="46.37813" lon="5.88224">
        <ele>517.7</ele>
        <time>2013-10-03T16:04:19Z</time>
      </trkpt>
      <trkpt lat="46.37797" lon="5.88199">
        <ele>518.8</ele>
        <time>2013-10-03T16:04:28Z</time>
      </trkpt>
      <trkpt lat="46.37779" lon="5.88167">
        <ele>521.2</ele>
        <time>2013-10-03T16:04:39Z</time>
      </trkpt>
      <trkpt lat="46.37771" lon="5.88157">
        <ele>522.3</ele>
        <time>2013-10-03T16:04:44Z</time>
      </trkpt>
      <trkpt lat="46.3775" lon="5.88128">
        <ele>521.9</ele>
        <time>2013-10-03T16:04:55Z</time>
      </trkpt>
      <trkpt lat="46.37741" lon="5.88099">
        <ele>523</ele>
        <time>2013-10-03T16:05:04Z</time>
      </trkpt>
      <trkpt lat="46.3774" lon="5.8807">
        <ele>522.2</ele>
        <time>2013-10-03T16:05:12Z</time>
      </trkpt>
      <trkpt lat="46.37731" lon="5.88034">
        <ele>524.3</ele>
        <time>2013-10-03T16:05:21Z</time>
      </trkpt>
      <trkpt lat="46.37727" lon="5.88017">
        <ele>525.2</ele>
        <time>2013-10-03T16:05:27Z</time>
      </trkpt>
      <trkpt lat="46.37729" lon="5.87996">
        <ele>526</ele>
        <time>2013-10-03T16:05:33Z</time>
      </trkpt>
      <trkpt lat="46.37725" lon="5.87965">
        <ele>528</ele>
        <time>2013-10-03T16:05:41Z</time>
      </trkpt>
      <trkpt lat="46.37716" lon="5.87938">
        <ele>531.5</ele>
        <time>2013-10-03T16:05:49Z</time>
      </trkpt>
      <trkpt lat="46.37709" lon="5.87914">
        <ele>534</ele>
        <time>2013-10-03T16:05:56Z</time>
      </trkpt>
      <trkpt lat="46.37701" lon="5.87874">
        <ele>534.1</ele>
        <time>2013-10-03T16:06:05Z</time>
      </trkpt>
      <trkpt lat="46.37698" lon="5.87845">
        <ele>534.8</ele>
        <time>2013-10-03T16:06:12Z</time>
      </trkpt>
      <trkpt lat="46.37708" lon="5.87813">
        <ele>532.6</ele>
        <time>2013-10-03T16:06:19Z</time>
      </trkpt>
      <trkpt lat="46.37722" lon="5.87784">
        <ele>532.1</ele>
        <time>2013-10-03T16:06:25Z</time>
      </trkpt>
      <trkpt lat="46.37741" lon="5.87749">
        <ele>529.7</ele>
        <time>2013-10-03T16:06:32Z</time>
      </trkpt>
      <trkpt lat="46.37755" lon="5.87731">
        <ele>529.2</ele>
        <time>2013-10-03T16:06:38Z</time>
      </trkpt>
      <trkpt lat="46.37783" lon="5.87721">
        <ele>529.2</ele>
        <time>2013-10-03T16:06:47Z</time>
      </trkpt>
      <trkpt lat="46.37803" lon="5.87702">
        <ele>529.9</ele>
        <time>2013-10-03T16:06:55Z</time>
      </trkpt>
      <trkpt lat="46.37827" lon="5.87681">
        <ele>527.4</ele>
        <time>2013-10-03T16:07:03Z</time>
      </trkpt>
      <trkpt lat="46.37842" lon="5.87663">
        <ele>526</ele>
        <time>2013-10-03T16:07:09Z</time>
      </trkpt>
      <trkpt lat="46.37852" lon="5.87644">
        <ele>524.6</ele>
        <time>2013-10-03T16:07:14Z</time>
      </trkpt>
      <trkpt lat="46.37872" lon="5.87627">
        <ele>523.5</ele>
        <time>2013-10-03T16:07:21Z</time>
      </trkpt>
      <trkpt lat="46.37887" lon="5.87605">
        <ele>522.5</ele>
        <time>2013-10-03T16:07:27Z</time>
      </trkpt>
      <trkpt lat="46.37903" lon="5.87585">
        <ele>521.3</ele>
        <time>2013-10-03T16:07:33Z</time>
      </trkpt>
      <trkpt lat="46.37915" lon="5.87567">
        <ele>520.4</ele>
        <time>2013-10-03T16:07:38Z</time>
      </trkpt>
      <trkpt lat="46.37931" lon="5.87545">
        <ele>518.4</ele>
        <time>2013-10-03T16:07:45Z</time>
      </trkpt>
      <trkpt lat="46.37936" lon="5.87532">
        <ele>516.9</ele>
        <time>2013-10-03T16:07:50Z</time>
      </trkpt>
      <trkpt lat="46.37904" lon="5.87507">
        <ele>517.7</ele>
        <time>2013-10-03T16:08:02Z</time>
      </trkpt>
      <trkpt lat="46.37889" lon="5.87505">
        <ele>517.1</ele>
        <time>2013-10-03T16:08:08Z</time>
      </trkpt>
      <trkpt lat="46.37862" lon="5.87504">
        <ele>514.2</ele>
        <time>2013-10-03T16:08:15Z</time>
      </trkpt>
      <trkpt lat="46.37843" lon="5.87492">
        <ele>512.9</ele>
        <time>2013-10-03T16:08:21Z</time>
      </trkpt>
      <trkpt lat="46.37824" lon="5.87481">
        <ele>512.8</ele>
        <time>2013-10-03T16:08:28Z</time>
      </trkpt>
      <trkpt lat="46.37805" lon="5.87477">
        <ele>512.6</ele>
        <time>2013-10-03T16:08:34Z</time>
      </trkpt>
      <trkpt lat="46.3779" lon="5.87458">
        <ele>511.9</ele>
        <time>2013-10-03T16:08:40Z</time>
      </trkpt>
      <trkpt lat="46.37774" lon="5.8744">
        <ele>511.3</ele>
        <time>2013-10-03T16:08:46Z</time>
      </trkpt>
      <trkpt lat="46.37741" lon="5.87424">
        <ele>509.7</ele>
        <time>2013-10-03T16:08:56Z</time>
      </trkpt>
      <trkpt lat="46.37724" lon="5.87444">
        <ele>507.7</ele>
        <time>2013-10-03T16:09:03Z</time>
      </trkpt>
      <trkpt lat="46.37718" lon="5.87471">
        <ele>507.5</ele>
        <time>2013-10-03T16:09:09Z</time>
      </trkpt>
      <trkpt lat="46.37724" lon="5.87501">
        <ele>507</ele>
        <time>2013-10-03T16:09:15Z</time>
      </trkpt>
      <trkpt lat="46.37741" lon="5.87522">
        <ele>507</ele>
        <time>2013-10-03T16:09:22Z</time>
      </trkpt>
      <trkpt lat="46.37761" lon="5.8754">
        <ele>506.9</ele>
        <time>2013-10-03T16:09:29Z</time>
      </trkpt>
      <trkpt lat="46.3778" lon="5.87559">
        <ele>506.1</ele>
        <time>2013-10-03T16:09:37Z</time>
      </trkpt>
      <trkpt lat="46.37803" lon="5.87581">
        <ele>505.4</ele>
        <time>2013-10-03T16:09:45Z</time>
      </trkpt>
      <trkpt lat="46.37823" lon="5.87587">
        <ele>505.2</ele>
        <time>2013-10-03T16:09:51Z</time>
      </trkpt>
      <trkpt lat="46.37837" lon="5.87566">
        <ele>504.9</ele>
        <time>2013-10-03T16:09:58Z</time>
      </trkpt>
      <trkpt lat="46.37848" lon="5.87537">
        <ele>503.9</ele>
        <time>2013-10-03T16:10:05Z</time>
      </trkpt>
      <trkpt lat="46.37842" lon="5.87506">
        <ele>504.4</ele>
        <time>2013-10-03T16:10:12Z</time>
      </trkpt>
      <trkpt lat="46.37825" lon="5.87485">
        <ele>504.5</ele>
        <time>2013-10-03T16:10:19Z</time>
      </trkpt>
      <trkpt lat="46.37808" lon="5.87469">
        <ele>504.1</ele>
        <time>2013-10-03T16:10:25Z</time>
      </trkpt>
      <trkpt lat="46.37789" lon="5.8745">
        <ele>504.3</ele>
        <time>2013-10-03T16:10:32Z</time>
      </trkpt>
      <trkpt lat="46.37776" lon="5.8744">
        <ele>504.5</ele>
        <time>2013-10-03T16:10:36Z</time>
      </trkpt>
      <trkpt lat="46.37748" lon="5.87424">
        <ele>506.4</ele>
        <time>2013-10-03T16:10:45Z</time>
      </trkpt>
      <trkpt lat="46.37733" lon="5.87432">
        <ele>507.4</ele>
        <time>2013-10-03T16:10:50Z</time>
      </trkpt>
      <trkpt lat="46.37724" lon="5.87448">
        <ele>506.9</ele>
        <time>2013-10-03T16:10:54Z</time>
      </trkpt>
      <trkpt lat="46.3772" lon="5.87479">
        <ele>506.1</ele>
        <time>2013-10-03T16:11:00Z</time>
      </trkpt>
      <trkpt lat="46.37725" lon="5.87504">
        <ele>506.8</ele>
        <time>2013-10-03T16:11:05Z</time>
      </trkpt>
      <trkpt lat="46.37743" lon="5.87524">
        <ele>507.2</ele>
        <time>2013-10-03T16:11:12Z</time>
      </trkpt>
      <trkpt lat="46.37763" lon="5.87544">
        <ele>506.8</ele>
        <time>2013-10-03T16:11:19Z</time>
      </trkpt>
      <trkpt lat="46.37782" lon="5.87562">
        <ele>507</ele>
        <time>2013-10-03T16:11:26Z</time>
      </trkpt>
      <trkpt lat="46.37795" lon="5.87574">
        <ele>507.6</ele>
        <time>2013-10-03T16:11:30Z</time>
      </trkpt>
      <trkpt lat="46.37811" lon="5.87586">
        <ele>507.6</ele>
        <time>2013-10-03T16:11:36Z</time>
      </trkpt>
      <trkpt lat="46.37838" lon="5.87569">
        <ele>506.3</ele>
        <time>2013-10-03T16:11:45Z</time>
      </trkpt>
      <trkpt lat="46.37848" lon="5.87548">
        <ele>505.8</ele>
        <time>2013-10-03T16:11:50Z</time>
      </trkpt>
      <trkpt lat="46.3785" lon="5.87522">
        <ele>505.2</ele>
        <time>2013-10-03T16:11:55Z</time>
      </trkpt>
      <trkpt lat="46.37839" lon="5.87497">
        <ele>506.3</ele>
        <time>2013-10-03T16:12:01Z</time>
      </trkpt>
      <trkpt lat="46.37822" lon="5.8748">
        <ele>506.1</ele>
        <time>2013-10-03T16:12:07Z</time>
      </trkpt>
      <trkpt lat="46.37801" lon="5.87461">
        <ele>506.4</ele>
        <time>2013-10-03T16:12:14Z</time>
      </trkpt>
      <trkpt lat="46.37784" lon="5.87447">
        <ele>506.2</ele>
        <time>2013-10-03T16:12:20Z</time>
      </trkpt>
      <trkpt lat="46.3777" lon="5.8743">
        <ele>506.7</ele>
        <time>2013-10-03T16:12:25Z</time>
      </trkpt>
      <trkpt lat="46.3775" lon="5.87422">
        <ele>507.1</ele>
        <time>2013-10-03T16:12:32Z</time>
      </trkpt>
      <trkpt lat="46.37735" lon="5.87431">
        <ele>506.4</ele>
        <time>2013-10-03T16:12:37Z</time>
      </trkpt>
      <trkpt lat="46.37721" lon="5.87454">
        <ele>506.6</ele>
        <time>2013-10-03T16:12:43Z</time>
      </trkpt>
      <trkpt lat="46.37721" lon="5.87492">
        <ele>505.5</ele>
        <time>2013-10-03T16:12:51Z</time>
      </trkpt>
      <trkpt lat="46.37737" lon="5.87518">
        <ele>504.7</ele>
        <time>2013-10-03T16:12:58Z</time>
      </trkpt>
      <trkpt lat="46.37751" lon="5.87532">
        <ele>504.6</ele>
        <time>2013-10-03T16:13:04Z</time>
      </trkpt>
      <trkpt lat="46.37767" lon="5.87547">
        <ele>504.3</ele>
        <time>2013-10-03T16:13:10Z</time>
      </trkpt>
      <trkpt lat="46.37787" lon="5.87569">
        <ele>504.5</ele>
        <time>2013-10-03T16:13:18Z</time>
      </trkpt>
      <trkpt lat="46.37808" lon="5.87585">
        <ele>504</ele>
        <time>2013-10-03T16:13:25Z</time>
      </trkpt>
      <trkpt lat="46.37833" lon="5.87575">
        <ele>503.6</ele>
        <time>2013-10-03T16:13:33Z</time>
      </trkpt>
      <trkpt lat="46.37844" lon="5.87555">
        <ele>503.7</ele>
        <time>2013-10-03T16:13:38Z</time>
      </trkpt>
      <trkpt lat="46.37847" lon="5.87518">
        <ele>503.5</ele>
        <time>2013-10-03T16:13:46Z</time>
      </trkpt>
      <trkpt lat="46.37832" lon="5.87497">
        <ele>505</ele>
        <time>2013-10-03T16:13:52Z</time>
      </trkpt>
      <trkpt lat="46.37815" lon="5.87478">
        <ele>504.8</ele>
        <time>2013-10-03T16:13:58Z</time>
      </trkpt>
      <trkpt lat="46.37797" lon="5.87461">
        <ele>505.6</ele>
        <time>2013-10-03T16:14:04Z</time>
      </trkpt>
      <trkpt lat="46.37777" lon="5.87442">
        <ele>505.7</ele>
        <time>2013-10-03T16:14:11Z</time>
      </trkpt>
      <trkpt lat="46.3775" lon="5.87424">
        <ele>507.4</ele>
        <time>2013-10-03T16:14:20Z</time>
      </trkpt>
      <trkpt lat="46.37729" lon="5.87438">
        <ele>508.3</ele>
        <time>2013-10-03T16:14:28Z</time>
      </trkpt>
      <trkpt lat="46.37721" lon="5.87457">
        <ele>508.3</ele>
        <time>2013-10-03T16:14:33Z</time>
      </trkpt>
      <trkpt lat="46.37722" lon="5.87492">
        <ele>507.9</ele>
        <time>2013-10-03T16:14:40Z</time>
      </trkpt>
      <trkpt lat="46.37733" lon="5.87514">
        <ele>507.7</ele>
        <time>2013-10-03T16:14:46Z</time>
      </trkpt>
      <trkpt lat="46.37758" lon="5.87539">
        <ele>507.6</ele>
        <time>2013-10-03T16:14:55Z</time>
      </trkpt>
      <trkpt lat="46.37776" lon="5.87557">
        <ele>507</ele>
        <time>2013-10-03T16:15:01Z</time>
      </trkpt>
      <trkpt lat="46.37798" lon="5.87577">
        <ele>507.7</ele>
        <time>2013-10-03T16:15:09Z</time>
      </trkpt>
      <trkpt lat="46.37816" lon="5.87586">
        <ele>507.3</ele>
        <time>2013-10-03T16:15:15Z</time>
      </trkpt>
      <trkpt lat="46.37834" lon="5.87577">
        <ele>505.8</ele>
        <time>2013-10-03T16:15:21Z</time>
      </trkpt>
      <trkpt lat="46.37846" lon="5.87554">
        <ele>505.4</ele>
        <time>2013-10-03T16:15:27Z</time>
      </trkpt>
      <trkpt lat="46.3785" lon="5.87523">
        <ele>505.2</ele>
        <time>2013-10-03T16:15:33Z</time>
      </trkpt>
      <trkpt lat="46.37832" lon="5.87494">
        <ele>506.7</ele>
        <time>2013-10-03T16:15:41Z</time>
      </trkpt>
      <trkpt lat="46.3781" lon="5.87474">
        <ele>506.7</ele>
        <time>2013-10-03T16:15:48Z</time>
      </trkpt>
      <trkpt lat="46.3779" lon="5.87453">
        <ele>507.4</ele>
        <time>2013-10-03T16:15:55Z</time>
      </trkpt>
      <trkpt lat="46.37769" lon="5.87435">
        <ele>507.8</ele>
        <time>2013-10-03T16:16:03Z</time>
      </trkpt>
      <trkpt lat="46.37746" lon="5.87425">
        <ele>508.2</ele>
        <time>2013-10-03T16:16:10Z</time>
      </trkpt>
      <trkpt lat="46.37727" lon="5.87438">
        <ele>507.4</ele>
        <time>2013-10-03T16:16:16Z</time>
      </trkpt>
      <trkpt lat="46.37719" lon="5.87463">
        <ele>506.6</ele>
        <time>2013-10-03T16:16:21Z</time>
      </trkpt>
      <trkpt lat="46.37719" lon="5.87489">
        <ele>505.7</ele>
        <time>2013-10-03T16:16:26Z</time>
      </trkpt>
      <trkpt lat="46.37728" lon="5.87514">
        <ele>505.6</ele>
        <time>2013-10-03T16:16:32Z</time>
      </trkpt>
      <trkpt lat="46.37756" lon="5.87538">
        <ele>506</ele>
        <time>2013-10-03T16:16:41Z</time>
      </trkpt>
      <trkpt lat="46.37777" lon="5.87558">
        <ele>506.6</ele>
        <time>2013-10-03T16:16:49Z</time>
      </trkpt>
      <trkpt lat="46.37803" lon="5.87582">
        <ele>507.5</ele>
        <time>2013-10-03T16:16:58Z</time>
      </trkpt>
      <trkpt lat="46.37823" lon="5.87587">
        <ele>506.5</ele>
        <time>2013-10-03T16:17:04Z</time>
      </trkpt>
      <trkpt lat="46.37839" lon="5.87577">
        <ele>505.6</ele>
        <time>2013-10-03T16:17:09Z</time>
      </trkpt>
      <trkpt lat="46.37848" lon="5.87553">
        <ele>505.4</ele>
        <time>2013-10-03T16:17:14Z</time>
      </trkpt>
      <trkpt lat="46.37849" lon="5.87518">
        <ele>504.2</ele>
        <time>2013-10-03T16:17:21Z</time>
      </trkpt>
      <trkpt lat="46.37837" lon="5.87495">
        <ele>504.4</ele>
        <time>2013-10-03T16:17:27Z</time>
      </trkpt>
      <trkpt lat="46.37819" lon="5.87476">
        <ele>504.8</ele>
        <time>2013-10-03T16:17:33Z</time>
      </trkpt>
      <trkpt lat="46.37805" lon="5.87462">
        <ele>505.1</ele>
        <time>2013-10-03T16:17:38Z</time>
      </trkpt>
      <trkpt lat="46.37797" lon="5.87451">
        <ele>505</ele>
        <time>2013-10-03T16:17:41Z</time>
      </trkpt>
      <trkpt lat="46.37784" lon="5.87436">
        <ele>505.6</ele>
        <time>2013-10-03T16:17:47Z</time>
      </trkpt>
      <trkpt lat="46.37763" lon="5.87419">
        <ele>507.6</ele>
        <time>2013-10-03T16:17:55Z</time>
      </trkpt>
      <trkpt lat="46.37749" lon="5.87403">
        <ele>507.7</ele>
        <time>2013-10-03T16:18:01Z</time>
      </trkpt>
      <trkpt lat="46.37728" lon="5.87376">
        <ele>506.9</ele>
        <time>2013-10-03T16:18:10Z</time>
      </trkpt>
      <trkpt lat="46.37714" lon="5.87349">
        <ele>506.7</ele>
        <time>2013-10-03T16:18:17Z</time>
      </trkpt>
      <trkpt lat="46.37694" lon="5.87341">
        <ele>505.6</ele>
        <time>2013-10-03T16:18:24Z</time>
      </trkpt>
      <trkpt lat="46.37679" lon="5.87358">
        <ele>504</ele>
        <time>2013-10-03T16:18:31Z</time>
      </trkpt>
      <trkpt lat="46.37664" lon="5.87376">
        <ele>502.9</ele>
        <time>2013-10-03T16:18:38Z</time>
      </trkpt>
      <trkpt lat="46.37653" lon="5.87389">
        <ele>501.8</ele>
        <time>2013-10-03T16:18:43Z</time>
      </trkpt>
      <trkpt lat="46.37647" lon="5.87403">
        <ele>500.6</ele>
        <time>2013-10-03T16:18:49Z</time>
      </trkpt>
      <trkpt lat="46.37638" lon="5.87394">
        <ele>497.2</ele>
        <time>2013-10-03T16:18:58Z</time>
      </trkpt>
      <trkpt lat="46.37647" lon="5.87343">
        <ele>490.3</ele>
        <time>2013-10-03T16:19:07Z</time>
      </trkpt>
      <trkpt lat="46.37659" lon="5.8732">
        <ele>488.3</ele>
        <time>2013-10-03T16:19:13Z</time>
      </trkpt>
      <trkpt lat="46.37672" lon="5.87288">
        <ele>487.2</ele>
        <time>2013-10-03T16:19:21Z</time>
      </trkpt>
      <trkpt lat="46.3768" lon="5.87268">
        <ele>486.6</ele>
        <time>2013-10-03T16:19:26Z</time>
      </trkpt>
      <trkpt lat="46.37697" lon="5.87256">
        <ele>486</ele>
        <time>2013-10-03T16:19:32Z</time>
      </trkpt>
      <trkpt lat="46.37713" lon="5.8726">
        <ele>486.6</ele>
        <time>2013-10-03T16:19:38Z</time>
      </trkpt>
      <trkpt lat="46.37728" lon="5.87284">
        <ele>485.8</ele>
        <time>2013-10-03T16:19:44Z</time>
      </trkpt>
      <trkpt lat="46.37744" lon="5.87315">
        <ele>484</ele>
        <time>2013-10-03T16:19:52Z</time>
      </trkpt>
      <trkpt lat="46.37757" lon="5.87334">
        <ele>484.1</ele>
        <time>2013-10-03T16:19:58Z</time>
      </trkpt>
      <trkpt lat="46.37767" lon="5.87355">
        <ele>483.5</ele>
        <time>2013-10-03T16:20:04Z</time>
      </trkpt>
      <trkpt lat="46.37785" lon="5.8738">
        <ele>484.7</ele>
        <time>2013-10-03T16:20:12Z</time>
      </trkpt>
      <trkpt lat="46.37799" lon="5.87392">
        <ele>485.4</ele>
        <time>2013-10-03T16:20:18Z</time>
      </trkpt>
      <trkpt lat="46.37811" lon="5.87404">
        <ele>486.1</ele>
        <time>2013-10-03T16:20:25Z</time>
      </trkpt>
      <trkpt lat="46.37843" lon="5.8743">
        <ele>487.4</ele>
        <time>2013-10-03T16:20:38Z</time>
      </trkpt>
      <trkpt lat="46.37861" lon="5.8744">
        <ele>487.6</ele>
        <time>2013-10-03T16:20:44Z</time>
      </trkpt>
      <trkpt lat="46.37886" lon="5.87443">
        <ele>489</ele>
        <time>2013-10-03T16:20:53Z</time>
      </trkpt>
      <trkpt lat="46.37905" lon="5.87447">
        <ele>490.2</ele>
        <time>2013-10-03T16:21:00Z</time>
      </trkpt>
      <trkpt lat="46.37921" lon="5.87454">
        <ele>492</ele>
        <time>2013-10-03T16:21:07Z</time>
      </trkpt>
      <trkpt lat="46.37947" lon="5.87466">
        <ele>493.1</ele>
        <time>2013-10-03T16:21:17Z</time>
      </trkpt>
      <trkpt lat="46.3797" lon="5.87468">
        <ele>494.4</ele>
        <time>2013-10-03T16:21:25Z</time>
      </trkpt>
      <trkpt lat="46.37989" lon="5.87466">
        <ele>494.1</ele>
        <time>2013-10-03T16:21:32Z</time>
      </trkpt>
      <trkpt lat="46.38016" lon="5.87452">
        <ele>494.1</ele>
        <time>2013-10-03T16:21:41Z</time>
      </trkpt>
      <trkpt lat="46.38036" lon="5.87426">
        <ele>494.4</ele>
        <time>2013-10-03T16:21:49Z</time>
      </trkpt>
      <trkpt lat="46.3805" lon="5.87406">
        <ele>496.3</ele>
        <time>2013-10-03T16:21:55Z</time>
      </trkpt>
      <trkpt lat="46.38062" lon="5.87384">
        <ele>496</ele>
        <time>2013-10-03T16:22:01Z</time>
      </trkpt>
      <trkpt lat="46.38071" lon="5.87361">
        <ele>495.5</ele>
        <time>2013-10-03T16:22:07Z</time>
      </trkpt>
      <trkpt lat="46.38086" lon="5.87333">
        <ele>495.3</ele>
        <time>2013-10-03T16:22:15Z</time>
      </trkpt>
      <trkpt lat="46.38097" lon="5.8731">
        <ele>494.8</ele>
        <time>2013-10-03T16:22:21Z</time>
      </trkpt>
      <trkpt lat="46.38107" lon="5.87291">
        <ele>493.5</ele>
        <time>2013-10-03T16:22:26Z</time>
      </trkpt>
      <trkpt lat="46.38127" lon="5.87274">
        <ele>493.5</ele>
        <time>2013-10-03T16:22:33Z</time>
      </trkpt>
      <trkpt lat="46.38145" lon="5.87238">
        <ele>493</ele>
        <time>2013-10-03T16:22:41Z</time>
      </trkpt>
      <trkpt lat="46.38161" lon="5.87211">
        <ele>493</ele>
        <time>2013-10-03T16:22:48Z</time>
      </trkpt>
      <trkpt lat="46.38167" lon="5.87184">
        <ele>495.1</ele>
        <time>2013-10-03T16:22:54Z</time>
      </trkpt>
      <trkpt lat="46.38176" lon="5.8716">
        <ele>493.9</ele>
        <time>2013-10-03T16:23:00Z</time>
      </trkpt>
      <trkpt lat="46.38193" lon="5.87145">
        <ele>493.6</ele>
        <time>2013-10-03T16:23:07Z</time>
      </trkpt>
      <trkpt lat="46.38207" lon="5.87113">
        <ele>494</ele>
        <time>2013-10-03T16:23:15Z</time>
      </trkpt>
      <trkpt lat="46.38226" lon="5.87098">
        <ele>494.7</ele>
        <time>2013-10-03T16:23:22Z</time>
      </trkpt>
      <trkpt lat="46.38249" lon="5.8708">
        <ele>495.7</ele>
        <time>2013-10-03T16:23:32Z</time>
      </trkpt>
      <trkpt lat="46.38264" lon="5.87069">
        <ele>497.5</ele>
        <time>2013-10-03T16:23:38Z</time>
      </trkpt>
      <trkpt lat="46.38288" lon="5.87058">
        <ele>498.7</ele>
        <time>2013-10-03T16:23:47Z</time>
      </trkpt>
      <trkpt lat="46.38306" lon="5.87041">
        <ele>501.7</ele>
        <time>2013-10-03T16:23:55Z</time>
      </trkpt>
      <trkpt lat="46.38333" lon="5.87028">
        <ele>503.4</ele>
        <time>2013-10-03T16:24:04Z</time>
      </trkpt>
      <trkpt lat="46.38352" lon="5.87023">
        <ele>502.7</ele>
        <time>2013-10-03T16:24:10Z</time>
      </trkpt>
      <trkpt lat="46.3837" lon="5.87014">
        <ele>501.2</ele>
        <time>2013-10-03T16:24:16Z</time>
      </trkpt>
      <trkpt lat="46.38391" lon="5.8701">
        <ele>498.8</ele>
        <time>2013-10-03T16:24:22Z</time>
      </trkpt>
      <trkpt lat="46.38413" lon="5.87">
        <ele>496.5</ele>
        <time>2013-10-03T16:24:29Z</time>
      </trkpt>
      <trkpt lat="46.38429" lon="5.86981">
        <ele>496.3</ele>
        <time>2013-10-03T16:24:35Z</time>
      </trkpt>
      <trkpt lat="46.38444" lon="5.86959">
        <ele>495.7</ele>
        <time>2013-10-03T16:24:42Z</time>
      </trkpt>
      <trkpt lat="46.38458" lon="5.86934">
        <ele>495.9</ele>
        <time>2013-10-03T16:24:49Z</time>
      </trkpt>
      <trkpt lat="46.38479" lon="5.86904">
        <ele>496.6</ele>
        <time>2013-10-03T16:24:58Z</time>
      </trkpt>
      <trkpt lat="46.38493" lon="5.86891">
        <ele>495.8</ele>
        <time>2013-10-03T16:25:03Z</time>
      </trkpt>
      <trkpt lat="46.38508" lon="5.86869">
        <ele>496.4</ele>
        <time>2013-10-03T16:25:09Z</time>
      </trkpt>
      <trkpt lat="46.38522" lon="5.86845">
        <ele>495.6</ele>
        <time>2013-10-03T16:25:15Z</time>
      </trkpt>
      <trkpt lat="46.38532" lon="5.86827">
        <ele>494.9</ele>
        <time>2013-10-03T16:25:20Z</time>
      </trkpt>
      <trkpt lat="46.38549" lon="5.8681">
        <ele>493.5</ele>
        <time>2013-10-03T16:25:27Z</time>
      </trkpt>
      <trkpt lat="46.38568" lon="5.86804">
        <ele>492.4</ele>
        <time>2013-10-03T16:25:33Z</time>
      </trkpt>
      <trkpt lat="46.3859" lon="5.86817">
        <ele>492.4</ele>
        <time>2013-10-03T16:25:38Z</time>
      </trkpt>
      <trkpt lat="46.38606" lon="5.86811">
        <ele>492.5</ele>
        <time>2013-10-03T16:25:44Z</time>
      </trkpt>
      <trkpt lat="46.38625" lon="5.86801">
        <ele>492.5</ele>
        <time>2013-10-03T16:25:51Z</time>
      </trkpt>
      <trkpt lat="46.3864" lon="5.86763">
        <ele>492.1</ele>
        <time>2013-10-03T16:25:59Z</time>
      </trkpt>
      <trkpt lat="46.38658" lon="5.86748">
        <ele>491.9</ele>
        <time>2013-10-03T16:26:06Z</time>
      </trkpt>
      <trkpt lat="46.38671" lon="5.86737">
        <ele>492.3</ele>
        <time>2013-10-03T16:26:11Z</time>
      </trkpt>
      <trkpt lat="46.38684" lon="5.86725">
        <ele>493.8</ele>
        <time>2013-10-03T16:26:16Z</time>
      </trkpt>
      <trkpt lat="46.38689" lon="5.86651">
        <ele>492.8</ele>
        <time>2013-10-03T16:26:24Z</time>
      </trkpt>
      <trkpt lat="46.38691" lon="5.86616">
        <ele>493.5</ele>
        <time>2013-10-03T16:26:29Z</time>
      </trkpt>
      <trkpt lat="46.38701" lon="5.86591">
        <ele>494.2</ele>
        <time>2013-10-03T16:26:35Z</time>
      </trkpt>
      <trkpt lat="46.38691" lon="5.86554">
        <ele>495.5</ele>
        <time>2013-10-03T16:26:42Z</time>
      </trkpt>
      <trkpt lat="46.38674" lon="5.86532">
        <ele>493.9</ele>
        <time>2013-10-03T16:26:49Z</time>
      </trkpt>
      <trkpt lat="46.38652" lon="5.86516">
        <ele>495.6</ele>
        <time>2013-10-03T16:26:57Z</time>
      </trkpt>
      <trkpt lat="46.38622" lon="5.86497">
        <ele>499.2</ele>
        <time>2013-10-03T16:27:07Z</time>
      </trkpt>
      <trkpt lat="46.38598" lon="5.86486">
        <ele>498.8</ele>
        <time>2013-10-03T16:27:14Z</time>
      </trkpt>
      <trkpt lat="46.38582" lon="5.8647">
        <ele>497</ele>
        <time>2013-10-03T16:27:20Z</time>
      </trkpt>
      <trkpt lat="46.38562" lon="5.86454">
        <ele>495.6</ele>
        <time>2013-10-03T16:27:28Z</time>
      </trkpt>
      <trkpt lat="46.38543" lon="5.86438">
        <ele>494.1</ele>
        <time>2013-10-03T16:27:35Z</time>
      </trkpt>
      <trkpt lat="46.38522" lon="5.86422">
        <ele>492.9</ele>
        <time>2013-10-03T16:27:43Z</time>
      </trkpt>
      <trkpt lat="46.38503" lon="5.86409">
        <ele>493.3</ele>
        <time>2013-10-03T16:27:50Z</time>
      </trkpt>
      <trkpt lat="46.3848" lon="5.86391">
        <ele>493.4</ele>
        <time>2013-10-03T16:27:58Z</time>
      </trkpt>
      <trkpt lat="46.38461" lon="5.86381">
        <ele>493.3</ele>
        <time>2013-10-03T16:28:04Z</time>
      </trkpt>
      <trkpt lat="46.38443" lon="5.8637">
        <ele>495</ele>
        <time>2013-10-03T16:28:10Z</time>
      </trkpt>
      <trkpt lat="46.3843" lon="5.86358">
        <ele>496.8</ele>
        <time>2013-10-03T16:28:17Z</time>
      </trkpt>
      <trkpt lat="46.38411" lon="5.86328">
        <ele>498.6</ele>
        <time>2013-10-03T16:28:26Z</time>
      </trkpt>
      <trkpt lat="46.38402" lon="5.86293">
        <ele>498.5</ele>
        <time>2013-10-03T16:28:35Z</time>
      </trkpt>
      <trkpt lat="46.38411" lon="5.86269">
        <ele>500.9</ele>
        <time>2013-10-03T16:28:41Z</time>
      </trkpt>
      <trkpt lat="46.38384" lon="5.86244">
        <ele>504.8</ele>
        <time>2013-10-03T16:28:50Z</time>
      </trkpt>
      <trkpt lat="46.38361" lon="5.86233">
        <ele>506.5</ele>
        <time>2013-10-03T16:28:56Z</time>
      </trkpt>
      <trkpt lat="46.38341" lon="5.86221">
        <ele>502.6</ele>
        <time>2013-10-03T16:29:02Z</time>
      </trkpt>
      <trkpt lat="46.38331" lon="5.86208">
        <ele>501.2</ele>
        <time>2013-10-03T16:29:10Z</time>
      </trkpt>
      <trkpt lat="46.38292" lon="5.86186">
        <ele>501</ele>
        <time>2013-10-03T16:29:19Z</time>
      </trkpt>
      <trkpt lat="46.3827" lon="5.86166">
        <ele>501.9</ele>
        <time>2013-10-03T16:29:26Z</time>
      </trkpt>
      <trkpt lat="46.38247" lon="5.86141">
        <ele>501.9</ele>
        <time>2013-10-03T16:29:34Z</time>
      </trkpt>
      <trkpt lat="46.38231" lon="5.86125">
        <ele>501.2</ele>
        <time>2013-10-03T16:29:39Z</time>
      </trkpt>
      <trkpt lat="46.3821" lon="5.86103">
        <ele>500.2</ele>
        <time>2013-10-03T16:29:45Z</time>
      </trkpt>
      <trkpt lat="46.38191" lon="5.86087">
        <ele>499.1</ele>
        <time>2013-10-03T16:29:54Z</time>
      </trkpt>
      <trkpt lat="46.38165" lon="5.86041">
        <ele>497</ele>
        <time>2013-10-03T16:30:07Z</time>
      </trkpt>
      <trkpt lat="46.38153" lon="5.86012">
        <ele>497.4</ele>
        <time>2013-10-03T16:30:15Z</time>
      </trkpt>
      <trkpt lat="46.3814" lon="5.85971">
        <ele>495.6</ele>
        <time>2013-10-03T16:30:24Z</time>
      </trkpt>
      <trkpt lat="46.3814" lon="5.85939">
        <ele>495.6</ele>
        <time>2013-10-03T16:30:30Z</time>
      </trkpt>
      <trkpt lat="46.38126" lon="5.85906">
        <ele>495.8</ele>
        <time>2013-10-03T16:30:38Z</time>
      </trkpt>
      <trkpt lat="46.38116" lon="5.85883">
        <ele>494.5</ele>
        <time>2013-10-03T16:30:44Z</time>
      </trkpt>
      <trkpt lat="46.3811" lon="5.85851">
        <ele>492.5</ele>
        <time>2013-10-03T16:30:51Z</time>
      </trkpt>
      <trkpt lat="46.38104" lon="5.85817">
        <ele>491.7</ele>
        <time>2013-10-03T16:30:58Z</time>
      </trkpt>
      <trkpt lat="46.381" lon="5.85782">
        <ele>490.3</ele>
        <time>2013-10-03T16:31:04Z</time>
      </trkpt>
      <trkpt lat="46.38095" lon="5.85753">
        <ele>489.8</ele>
        <time>2013-10-03T16:31:10Z</time>
      </trkpt>
      <trkpt lat="46.3809" lon="5.85724">
        <ele>488.6</ele>
        <time>2013-10-03T16:31:16Z</time>
      </trkpt>
      <trkpt lat="46.38082" lon="5.85696">
        <ele>486.9</ele>
        <time>2013-10-03T16:31:23Z</time>
      </trkpt>
      <trkpt lat="46.38085" lon="5.85678">
        <ele>487.8</ele>
        <time>2013-10-03T16:31:28Z</time>
      </trkpt>
      <trkpt lat="46.38093" lon="5.85659">
        <ele>489.2</ele>
        <time>2013-10-03T16:31:33Z</time>
      </trkpt>
      <trkpt lat="46.38077" lon="5.85642">
        <ele>489.3</ele>
        <time>2013-10-03T16:31:40Z</time>
      </trkpt>
      <trkpt lat="46.3806" lon="5.85641">
        <ele>494.7</ele>
        <time>2013-10-03T16:31:47Z</time>
      </trkpt>
      <trkpt lat="46.38038" lon="5.85624">
        <ele>499</ele>
        <time>2013-10-03T16:31:56Z</time>
      </trkpt>
      <trkpt lat="46.38038" lon="5.85624">
        <ele>429.1</ele>
        <time>2013-10-03T16:31:56Z</time>
      </trkpt>
      <trkpt lat="46.38038" lon="5.85624">
        <ele>429.1</ele>
        <time>2013-10-03T16:32:03Z</time>
      </trkpt>
    </trkseg>
  </trk>
</gpx>